sensor_id;sensor_type;location;lat;lon;timestamp;pressure;altitude;pressure_sealevel;temperature;humidity
7333;BME280;3707;43.618;25.342;2023-05-07T00:02:24;100479.56;;;17.22;83.72
7333;BME280;3707;43.618;25.342;2023-05-07T00:04:50;100400.28;;;16.84;83.21
7333;BME280;3707;43.618;25.342;2023-05-07T00:07:17;100482.13;;;17.31;83.69
7333;BME280;3707;43.618;25.342;2023-05-07T00:09:45;100476.84;;;17.34;83.45
7333;BME280;3707;43.618;25.342;2023-05-07T00:12:12;100484.78;;;17.25;84.27
7333;BME280;3707;43.618;25.342;2023-05-07T00:14:39;100478.66;;;17.23;83.51
7333;BME280;3707;43.618;25.342;2023-05-07T00:17:06;100483.03;;;17.26;84.27
7333;BME280;3707;43.618;25.342;2023-05-07T00:19:33;100484.88;;;17.10;84.66
7333;BME280;3707;43.618;25.342;2023-05-07T00:21:59;100480.50;;;17.06;85.52
7333;BME280;3707;43.618;25.342;2023-05-07T00:24:26;100473.53;;;17.02;87.16
7333;BME280;3707;43.618;25.342;2023-05-07T00:26:54;100480.53;;;17.03;87.25
7333;BME280;3707;43.618;25.342;2023-05-07T00:29:23;100470.16;;;16.80;88.91
7333;BME280;3707;43.618;25.342;2023-05-07T00:31:50;100485.84;;;16.94;89.34
7333;BME280;3707;43.618;25.342;2023-05-07T00:34:19;100487.53;;;17.00;87.80
7333;BME280;3707;43.618;25.342;2023-05-07T00:36:46;100482.31;;;17.01;87.58
7333;BME280;3707;43.618;25.342;2023-05-07T00:39:13;100461.38;;;16.92;87.29
7333;BME280;3707;43.618;25.342;2023-05-07T00:41:39;100480.59;;;16.88;88.53
7333;BME280;3707;43.618;25.342;2023-05-07T00:44:07;100469.25;;;16.84;89.29
7333;BME280;3707;43.618;25.342;2023-05-07T00:46:34;100493.69;;;16.88;88.50
7333;BME280;3707;43.618;25.342;2023-05-07T00:49:01;100498.06;;;16.89;87.94
7333;BME280;3707;43.618;25.342;2023-05-07T00:51:29;100498.88;;;16.99;87.71
7333;BME280;3707;43.618;25.342;2023-05-07T00:53:56;100491.84;;;17.11;86.05
7333;BME280;3707;43.618;25.342;2023-05-07T00:56:23;100475.34;;;16.91;86.51
7333;BME280;3707;43.618;25.342;2023-05-07T00:58:50;100487.53;;;16.98;85.67
7333;BME280;3707;43.618;25.342;2023-05-07T01:01:18;100496.31;;;16.85;86.59
7333;BME280;3707;43.618;25.342;2023-05-07T01:03:45;100489.38;;;16.73;86.39
7333;BME280;3707;43.618;25.342;2023-05-07T01:06:12;100496.34;;;16.77;87.01
7333;BME280;3707;43.618;25.342;2023-05-07T01:08:42;100406.59;;;16.36;86.24
7333;BME280;3707;43.618;25.342;2023-05-07T01:11:09;100483.31;;;16.62;87.01
7333;BME280;3707;43.618;25.342;2023-05-07T01:13:37;100487.69;;;16.57;86.46
7333;BME280;3707;43.618;25.342;2023-05-07T01:16:05;100483.31;;;16.55;87.36
7333;BME280;3707;43.618;25.342;2023-05-07T01:18:34;100483.31;;;16.55;86.86
7333;BME280;3707;43.618;25.342;2023-05-07T01:21:01;100480.72;;;16.50;86.95
7333;BME280;3707;43.618;25.342;2023-05-07T01:23:33;100481.59;;;16.46;86.62
7333;BME280;3707;43.618;25.342;2023-05-07T01:26:00;100470.31;;;16.18;87.46
7333;BME280;3707;43.618;25.342;2023-05-07T01:28:27;100494.72;;;16.14;87.66
7333;BME280;3707;43.618;25.342;2023-05-07T01:30:56;100492.09;;;16.05;87.72
7333;BME280;3707;43.618;25.342;2023-05-07T01:33:26;100472.09;;;15.83;89.02
7333;BME280;3707;43.618;25.342;2023-05-07T01:35:57;100486.88;;;15.96;89.08
7333;BME280;3707;43.618;25.342;2023-05-07T01:38:26;100484.28;;;15.96;88.50
7333;BME280;3707;43.618;25.342;2023-05-07T01:40:55;100463.34;;;15.78;89.62
7333;BME280;3707;43.618;25.342;2023-05-07T01:43:22;100471.19;;;15.81;89.48
7333;BME280;3707;43.618;25.342;2023-05-07T01:45:49;100462.47;;;15.77;89.99
7333;BME280;3707;43.618;25.342;2023-05-07T01:48:17;100471.19;;;15.81;90.47
7333;BME280;3707;43.618;25.342;2023-05-07T01:50:44;100478.16;;;15.77;92.16
7333;BME280;3707;43.618;25.342;2023-05-07T01:53:11;100479.03;;;15.63;94.20
7333;BME280;3707;43.618;25.342;2023-05-07T01:55:38;100485.13;;;15.71;96.66
7333;BME280;3707;43.618;25.342;2023-05-07T01:58:06;100479.06;;;15.66;100.00
7333;BME280;3707;43.618;25.342;2023-05-07T02:00:33;100457.25;;;15.56;100.00
7333;BME280;3707;43.618;25.342;2023-05-07T02:03:00;100462.47;;;15.61;100.00
7333;BME280;3707;43.618;25.342;2023-05-07T02:05:27;100470.25;;;15.46;100.00
7333;BME280;3707;43.618;25.342;2023-05-07T02:07:53;100461.56;;;15.39;100.00
7333;BME280;3707;43.618;25.342;2023-05-07T02:10:20;100461.50;;;15.24;100.00
7333;BME280;3707;43.618;25.342;2023-05-07T02:12:47;100458.03;;;15.17;100.00
7333;BME280;3707;43.618;25.342;2023-05-07T02:15:15;100419.69;;;14.98;100.00
7333;BME280;3707;43.618;25.342;2023-05-07T02:18:02;100444.97;;;15.19;100.00
7333;BME280;3707;43.618;25.342;2023-05-07T02:20:29;100444.94;;;14.98;100.00
7333;BME280;3707;43.618;25.342;2023-05-07T02:22:56;100421.41;;;14.87;100.00
7333;BME280;3707;43.618;25.342;2023-05-07T02:25:23;100440.53;;;14.83;100.00
7333;BME280;3707;43.618;25.342;2023-05-07T02:27:50;100424.78;;;14.62;100.00
7333;BME280;3707;43.618;25.342;2023-05-07T02:30:18;100447.41;;;14.67;100.00
7333;BME280;3707;43.618;25.342;2023-05-07T02:32:46;100444.72;;;14.46;100.00
7333;BME280;3707;43.618;25.342;2023-05-07T02:35:13;100437.63;;;14.28;100.00
7333;BME280;3707;43.618;25.342;2023-05-07T02:37:40;100455.06;;;14.34;100.00
7333;BME280;3707;43.618;25.342;2023-05-07T02:40:07;100446.28;;;14.27;100.00
7333;BME280;3707;43.618;25.342;2023-05-07T02:42:34;100454.06;;;14.12;100.00
7333;BME280;3707;43.618;25.342;2023-05-07T02:45:01;100443.53;;;14.03;100.00
7333;BME280;3707;43.618;25.342;2023-05-07T02:47:29;100445.22;;;13.95;100.00
7333;BME280;3707;43.618;25.342;2023-05-07T02:49:56;100439.94;;;13.86;100.00
7333;BME280;3707;43.618;25.342;2023-05-07T02:52:23;100442.59;;;13.90;100.00
7333;BME280;3707;43.618;25.342;2023-05-07T02:54:50;100430.44;;;13.93;100.00
7333;BME280;3707;43.618;25.342;2023-05-07T02:57:16;100451.38;;;14.03;100.00
7333;BME280;3707;43.618;25.342;2023-05-07T02:59:43;100450.50;;;14.04;100.00
7333;BME280;3707;43.618;25.342;2023-05-07T03:02:10;100440.91;;;14.00;100.00
7333;BME280;3707;43.618;25.342;2023-05-07T03:04:39;100456.66;;;14.12;100.00
7333;BME280;3707;43.618;25.342;2023-05-07T03:07:06;100436.53;;;13.93;100.00
7333;BME280;3707;43.618;25.342;2023-05-07T03:09:33;100458.41;;;14.15;100.00
7333;BME280;3707;43.618;25.342;2023-05-07T03:12:00;100466.28;;;14.22;100.00
7333;BME280;3707;43.618;25.342;2023-05-07T03:14:27;100462.75;;;14.17;100.00
7333;BME280;3707;43.618;25.342;2023-05-07T03:16:53;100455.78;;;14.13;100.00
7333;BME280;3707;43.618;25.342;2023-05-07T03:19:20;100462.81;;;14.28;100.00
7333;BME280;3707;43.618;25.342;2023-05-07T03:21:48;100442.81;;;14.27;100.00
7333;BME280;3707;43.618;25.342;2023-05-07T03:24:15;100475.13;;;14.46;100.00
7333;BME280;3707;43.618;25.342;2023-05-07T03:26:42;100472.53;;;14.46;100.00
7333;BME280;3707;43.618;25.342;2023-05-07T03:29:09;100469.06;;;14.50;100.00
7333;BME280;3707;43.618;25.342;2023-05-07T03:31:35;100469.06;;;14.50;100.00
7333;BME280;3707;43.618;25.342;2023-05-07T03:34:02;100460.31;;;14.37;100.00
7333;BME280;3707;43.618;25.342;2023-05-07T03:36:29;100478.75;;;14.69;100.00
7333;BME280;3707;43.618;25.342;2023-05-07T03:38:57;100477.19;;;15.19;100.00
7333;BME280;3707;43.618;25.342;2023-05-07T03:41:24;100458.13;;;15.51;100.00
7333;BME280;3707;43.618;25.342;2023-05-07T03:43:51;100452.91;;;15.72;100.00
7333;BME280;3707;43.618;25.342;2023-05-07T03:46:17;100491.19;;;16.30;100.00
7333;BME280;3707;43.618;25.342;2023-05-07T03:48:44;100485.06;;;16.56;100.00
7333;BME280;3707;43.618;25.342;2023-05-07T03:51:11;100478.84;;;16.90;100.00
7333;BME280;3707;43.618;25.342;2023-05-07T03:53:38;100484.97;;;16.88;99.68
7333;BME280;3707;43.618;25.342;2023-05-07T03:56:06;100487.41;;;17.24;95.93
7333;BME280;3707;43.618;25.342;2023-05-07T03:58:33;100489.03;;;17.45;93.62
7333;BME280;3707;43.618;25.342;2023-05-07T04:01:00;100492.19;;;17.95;89.80
7333;BME280;3707;43.618;25.342;2023-05-07T04:03:27;100504.13;;;18.29;86.16
7333;BME280;3707;43.618;25.342;2023-05-07T04:05:54;100506.63;;;18.43;83.04
7333;BME280;3707;43.618;25.342;2023-05-07T04:08:20;100503.84;;;18.61;81.57
7333;BME280;3707;43.618;25.342;2023-05-07T04:10:47;100511.47;;;18.81;79.17
7333;BME280;3707;43.618;25.342;2023-05-07T04:13:15;100508.59;;;19.02;76.93
7333;BME280;3707;43.618;25.342;2023-05-07T04:15:42;100511.00;;;19.20;75.56
7333;BME280;3707;43.618;25.342;2023-05-07T04:18:09;100516.84;;;19.44;73.64
7333;BME280;3707;43.618;25.342;2023-05-07T04:20:35;100515.34;;;19.84;70.53
7333;BME280;3707;43.618;25.342;2023-05-07T04:23:02;100495.84;;;19.96;69.42
7333;BME280;3707;43.618;25.342;2023-05-07T04:25:29;100513.63;;;20.35;67.09
7333;BME280;3707;43.618;25.342;2023-05-07T04:27:56;100525.81;;;20.41;65.60
7333;BME280;3707;43.618;25.342;2023-05-07T04:30:24;100502.25;;;20.79;63.15
7333;BME280;3707;43.618;25.342;2023-05-07T04:32:52;100515.47;;;21.20;61.70
7333;BME280;3707;43.618;25.342;2023-05-07T04:35:19;100528.84;;;21.13;60.00
7333;BME280;3707;43.618;25.342;2023-05-07T04:37:46;100527.28;;;20.57;60.59
7333;BME280;3707;43.618;25.342;2023-05-07T04:40:13;100531.84;;;20.93;61.14
7333;BME280;3707;43.618;25.342;2023-05-07T04:42:40;100538.09;;;21.70;62.05
7333;BME280;3707;43.618;25.342;2023-05-07T04:45:07;100532.31;;;22.29;61.65
7333;BME280;3707;43.618;25.342;2023-05-07T04:47:37;100543.34;;;22.10;61.72
7333;BME280;3707;43.618;25.342;2023-05-07T04:50:04;100546.47;;;21.89;63.28
7333;BME280;3707;43.618;25.342;2023-05-07T04:52:31;100547.69;;;21.36;65.07
7333;BME280;3707;43.618;25.342;2023-05-07T04:54:59;100560.44;;;21.56;65.23
7333;BME280;3707;43.618;25.342;2023-05-07T04:57:25;100562.69;;;21.72;64.45
7333;BME280;3707;43.618;25.342;2023-05-07T04:59:52;100573.22;;;22.12;62.16
7333;BME280;3707;43.618;25.342;2023-05-07T05:02:19;100565.22;;;21.77;60.99
7333;BME280;3707;43.618;25.342;2023-05-07T05:04:47;100558.41;;;21.27;63.91
7333;BME280;3707;43.618;25.342;2023-05-07T05:07:14;100561.00;;;21.70;63.37
7333;BME280;3707;43.618;25.342;2023-05-07T05:09:41;100560.81;;;20.95;62.71
7333;BME280;3707;43.618;25.342;2023-05-07T05:12:07;100562.75;;;20.39;65.77
7333;BME280;3707;43.618;25.342;2023-05-07T05:14:34;100559.34;;;20.80;66.39
7333;BME280;3707;43.618;25.342;2023-05-07T05:17:01;100554.78;;;20.88;65.10
7333;BME280;3707;43.618;25.342;2023-05-07T05:19:27;100547.22;;;21.17;65.74
7333;BME280;3707;43.618;25.342;2023-05-07T05:21:56;100556.94;;;21.14;67.16
7333;BME280;3707;43.618;25.342;2023-05-07T05:24:22;100565.00;;;21.05;64.06
7333;BME280;3707;43.618;25.342;2023-05-07T05:26:49;100557.97;;;21.48;66.68
7333;BME280;3707;43.618;25.342;2023-05-07T05:29:16;100552.25;;;21.28;78.89
7333;BME280;3707;43.618;25.342;2023-05-07T05:31:43;100566.34;;;20.83;74.52
7333;BME280;3707;43.618;25.342;2023-05-07T05:34:09;100561.34;;;20.66;74.68
7333;BME280;3707;43.618;25.342;2023-05-07T05:36:36;100558.88;;;20.05;75.48
7333;BME280;3707;43.618;25.342;2023-05-07T05:39:04;100565.53;;;19.72;75.50
7333;BME280;3707;43.618;25.342;2023-05-07T05:41:31;100556.94;;;19.59;75.43
7333;BME280;3707;43.618;25.342;2023-05-07T05:43:58;100563.53;;;19.23;82.76
7333;BME280;3707;43.618;25.342;2023-05-07T05:46:25;100539.66;;;19.40;80.08
7333;BME280;3707;43.618;25.342;2023-05-07T05:48:52;100543.31;;;19.27;74.55
7333;BME280;3707;43.618;25.342;2023-05-07T05:51:18;100571.53;;;19.14;75.84
7333;BME280;3707;43.618;25.342;2023-05-07T05:53:45;100552.91;;;18.58;76.16
7333;BME280;3707;43.618;25.342;2023-05-07T05:56:14;100559.84;;;18.65;73.56
7333;BME280;3707;43.618;25.342;2023-05-07T05:58:41;100572.13;;;18.60;75.67
7333;BME280;3707;43.618;25.342;2023-05-07T06:01:08;100562.81;;;18.19;71.85
7333;BME280;3707;43.618;25.342;2023-05-07T06:03:35;100569.00;;;18.12;77.14
7333;BME280;3707;43.618;25.342;2023-05-07T06:06:02;100571.81;;;17.88;78.52
7333;BME280;3707;43.618;25.342;2023-05-07T06:08:29;100567.53;;;17.76;77.86
7333;BME280;3707;43.618;25.342;2023-05-07T06:10:56;100551.75;;;17.81;78.73
7333;BME280;3707;43.618;25.342;2023-05-07T06:13:24;100564.63;;;18.13;79.67
7333;BME280;3707;43.618;25.342;2023-05-07T06:15:51;100527.38;;;17.67;77.82
7333;BME280;3707;43.618;25.342;2023-05-07T06:18:18;100566.59;;;17.90;77.84
7333;BME280;3707;43.618;25.342;2023-05-07T06:20:45;100571.56;;;18.21;74.23
7333;BME280;3707;43.618;25.342;2023-05-07T06:23:11;100566.66;;;17.74;72.93
7333;BME280;3707;43.618;25.342;2023-05-07T06:25:38;100566.34;;;18.20;71.86
7333;BME280;3707;43.618;25.342;2023-05-07T06:28:05;100547.03;;;18.24;68.29
7333;BME280;3707;43.618;25.342;2023-05-07T06:30:35;100568.91;;;18.27;66.63
7333;BME280;3707;43.618;25.342;2023-05-07T06:33:02;100554.81;;;18.34;68.48
7333;BME280;3707;43.618;25.342;2023-05-07T06:35:28;100560.94;;;18.38;67.02
7333;BME280;3707;43.618;25.342;2023-05-07T06:37:55;100538.97;;;18.47;72.64
7333;BME280;3707;43.618;25.342;2023-05-07T06:40:22;100556.28;;;18.69;68.70
7333;BME280;3707;43.618;25.342;2023-05-07T06:42:49;100555.34;;;18.76;68.92
7333;BME280;3707;43.618;25.342;2023-05-07T06:45:15;100565.06;;;18.68;68.09
7333;BME280;3707;43.618;25.342;2023-05-07T06:47:43;100538.59;;;18.86;68.87
7333;BME280;3707;43.618;25.342;2023-05-07T06:50:10;100556.72;;;19.07;67.72
7333;BME280;3707;43.618;25.342;2023-05-07T06:52:37;100544.59;;;18.97;66.65
7333;BME280;3707;43.618;25.342;2023-05-07T06:55:05;100544.38;;;19.14;65.53
7333;BME280;3707;43.618;25.342;2023-05-07T06:57:32;100545.75;;;19.41;64.89
7333;BME280;3707;43.618;25.342;2023-05-07T06:59:59;100555.31;;;19.51;63.69
7333;BME280;3707;43.618;25.342;2023-05-07T07:02:26;100563.31;;;19.42;63.38
7333;BME280;3707;43.618;25.342;2023-05-07T07:04:54;100557.03;;;19.52;65.15
7333;BME280;3707;43.618;25.342;2023-05-07T07:07:21;100550.75;;;19.63;64.35
7333;BME280;3707;43.618;25.342;2023-05-07T07:09:49;100564.63;;;19.74;62.08
7333;BME280;3707;43.618;25.342;2023-05-07T07:12:16;100572.41;;;19.82;61.85
7333;BME280;3707;43.618;25.342;2023-05-07T07:14:43;100554.59;;;19.99;60.58
7333;BME280;3707;43.618;25.342;2023-05-07T07:17:10;100551.59;;;20.20;55.67
7333;BME280;3707;43.618;25.342;2023-05-07T07:19:36;100566.25;;;20.40;57.73
7333;BME280;3707;43.618;25.342;2023-05-07T07:22:05;100569.63;;;20.46;56.14
7333;BME280;3707;43.618;25.342;2023-05-07T07:24:32;100570.47;;;20.48;56.21
7333;BME280;3707;43.618;25.342;2023-05-07T07:26:59;100573.50;;;20.74;61.30
7333;BME280;3707;43.618;25.342;2023-05-07T07:29:25;100571.13;;;20.61;56.13
7333;BME280;3707;43.618;25.342;2023-05-07T07:31:53;100575.19;;;20.26;54.57
7333;BME280;3707;43.618;25.342;2023-05-07T07:34:19;100574.09;;;20.41;53.85
7333;BME280;3707;43.618;25.342;2023-05-07T07:36:46;100571.13;;;20.61;55.28
7333;BME280;3707;43.618;25.342;2023-05-07T07:39:14;100557.97;;;20.59;54.61
7333;BME280;3707;43.618;25.342;2023-05-07T07:41:41;100552.66;;;20.10;53.02
7333;BME280;3707;43.618;25.342;2023-05-07T07:44:08;100558.97;;;19.99;50.30
7333;BME280;3707;43.618;25.342;2023-05-07T07:46:38;100578.41;;;20.47;49.55
7333;BME280;3707;43.618;25.342;2023-05-07T07:49:05;100500.53;;;20.31;50.51
7333;BME280;3707;43.618;25.342;2023-05-07T07:51:31;100568.03;;;20.85;49.88
7333;BME280;3707;43.618;25.342;2023-05-07T07:53:58;100561.88;;;20.86;51.07
7333;BME280;3707;43.618;25.342;2023-05-07T07:56:27;100555.84;;;21.25;49.57
7333;BME280;3707;43.618;25.342;2023-05-07T07:58:54;100569.38;;;20.60;49.13
7333;BME280;3707;43.618;25.342;2023-05-07T08:01:21;100565.81;;;20.64;49.93
7333;BME280;3707;43.618;25.342;2023-05-07T08:03:47;100555.03;;;20.76;48.89
7333;BME280;3707;43.618;25.342;2023-05-07T08:06:14;100564.25;;;21.00;49.23
7333;BME280;3707;43.618;25.342;2023-05-07T08:08:41;100561.16;;;20.78;47.89
7333;BME280;3707;43.618;25.342;2023-05-07T08:11:08;100566.34;;;20.83;48.14
7333;BME280;3707;43.618;25.342;2023-05-07T08:13:36;100554.63;;;20.97;47.28
7333;BME280;3707;43.618;25.342;2023-05-07T08:16:04;100562.78;;;21.30;46.60
7333;BME280;3707;43.618;25.342;2023-05-07T08:18:31;100558.72;;;21.12;48.67
7333;BME280;3707;43.618;25.342;2023-05-07T08:20:58;100561.44;;;21.07;48.93
7333;BME280;3707;43.618;25.342;2023-05-07T08:23:25;100551.88;;;21.02;49.57
7333;BME280;3707;43.618;25.342;2023-05-07T08:25:51;100551.41;;;20.83;48.13
7333;BME280;3707;43.618;25.342;2023-05-07T08:28:18;100554.84;;;20.85;49.41
7333;BME280;3707;43.618;25.342;2023-05-07T08:30:48;100558.03;;;21.02;50.47
7333;BME280;3707;43.618;25.342;2023-05-07T08:33:14;100546.19;;;21.24;50.67
7333;BME280;3707;43.618;25.342;2023-05-07T08:35:41;100527.63;;;21.27;49.61
7333;BME280;3707;43.618;25.342;2023-05-07T08:38:08;100552.50;;;21.57;49.49
7333;BME280;3707;43.618;25.342;2023-05-07T08:40:38;100549.69;;;21.65;49.22
7333;BME280;3707;43.618;25.342;2023-05-07T08:43:06;100543.94;;;21.46;49.20
7333;BME280;3707;43.618;25.342;2023-05-07T08:45:34;100548.59;;;21.34;48.74
7333;BME280;3707;43.618;25.342;2023-05-07T08:48:05;100548.44;;;21.41;49.22
7333;BME280;3707;43.618;25.342;2023-05-07T08:50:35;100522.91;;;21.43;48.76
7333;BME280;3707;43.618;25.342;2023-05-07T08:53:03;100542.50;;;21.33;47.76
7333;BME280;3707;43.618;25.342;2023-05-07T08:55:30;100545.91;;;20.94;48.87
7333;BME280;3707;43.618;25.342;2023-05-07T08:57:57;100537.28;;;20.84;49.66
7333;BME280;3707;43.618;25.342;2023-05-07T09:00:24;100536.84;;;21.05;49.07
7333;BME280;3707;43.618;25.342;2023-05-07T09:02:52;100516.50;;;21.15;49.15
7333;BME280;3707;43.618;25.342;2023-05-07T09:05:20;100536.19;;;21.39;47.72
7333;BME280;3707;43.618;25.342;2023-05-07T09:07:48;100534.72;;;21.25;47.60
7333;BME280;3707;43.618;25.342;2023-05-07T09:10:15;100530.41;;;21.21;48.20
7333;BME280;3707;43.618;25.342;2023-05-07T09:12:42;100531.53;;;21.11;48.58
7333;BME280;3707;43.618;25.342;2023-05-07T09:15:09;100539.47;;;21.50;49.14
7333;BME280;3707;43.618;25.342;2023-05-07T09:17:37;100531.31;;;21.59;46.87
7333;BME280;3707;43.618;25.342;2023-05-07T09:20:05;100528.03;;;21.49;47.09
7333;BME280;3707;43.618;25.342;2023-05-07T09:22:33;100523.47;;;21.17;47.42
7333;BME280;3707;43.618;25.342;2023-05-07T09:25:00;100519.81;;;21.24;47.80
7333;BME280;3707;43.618;25.342;2023-05-07T09:27:27;100521.41;;;21.32;47.27
7333;BME280;3707;43.618;25.342;2023-05-07T09:29:55;100524.69;;;21.43;46.24
7333;BME280;3707;43.618;25.342;2023-05-07T09:32:22;100528.69;;;21.59;46.66
7333;BME280;3707;43.618;25.342;2023-05-07T09:34:49;100525.31;;;21.54;46.52
7333;BME280;3707;43.618;25.342;2023-05-07T09:37:15;100513.81;;;21.56;46.17
7333;BME280;3707;43.618;25.342;2023-05-07T09:39:46;100521.25;;;21.76;46.07
7333;BME280;3707;43.618;25.342;2023-05-07T09:42:13;100510.69;;;21.76;46.16
7333;BME280;3707;43.618;25.342;2023-05-07T09:44:40;100511.19;;;21.55;45.66
7333;BME280;3707;43.618;25.342;2023-05-07T09:47:08;100418.53;;;21.32;45.02
7333;BME280;3707;43.618;25.342;2023-05-07T09:49:36;100502.91;;;21.71;44.76
7333;BME280;3707;43.618;25.342;2023-05-07T09:52:05;100508.47;;;21.96;44.29
7333;BME280;3707;43.618;25.342;2023-05-07T09:54:34;100470.19;;;21.77;44.85
7333;BME280;3707;43.618;25.342;2023-05-07T09:57:05;100471.84;;;22.16;45.71
7333;BME280;3707;43.618;25.342;2023-05-07T09:59:32;100420.38;;;21.99;44.93
7333;BME280;3707;43.618;25.342;2023-05-07T10:02:01;100495.25;;;22.32;43.71
7333;BME280;3707;43.618;25.342;2023-05-07T10:04:28;100499.03;;;22.21;44.01
7333;BME280;3707;43.618;25.342;2023-05-07T10:06:55;100499.41;;;22.40;44.83
7333;BME280;3707;43.618;25.342;2023-05-07T10:09:23;100478.00;;;22.51;43.55
7333;BME280;3707;43.618;25.342;2023-05-07T10:11:51;100491.50;;;22.72;43.49
7333;BME280;3707;43.618;25.342;2023-05-07T10:14:19;100485.66;;;22.60;44.36
7333;BME280;3707;43.618;25.342;2023-05-07T10:16:47;100483.97;;;22.57;43.61
7333;BME280;3707;43.618;25.342;2023-05-07T10:19:14;100481.06;;;22.68;43.67
7333;BME280;3707;43.618;25.342;2023-05-07T10:21:44;100486.19;;;22.72;42.91
7333;BME280;3707;43.618;25.342;2023-05-07T10:24:23;100489.56;;;22.79;43.01
7333;BME280;3707;43.618;25.342;2023-05-07T10:26:52;100467.16;;;22.60;43.65
7333;BME280;3707;43.618;25.342;2023-05-07T10:29:31;100477.63;;;22.63;43.03
7333;BME280;3707;43.618;25.342;2023-05-07T10:32:14;100471.22;;;22.73;42.89
7333;BME280;3707;43.618;25.342;2023-05-07T10:34:48;100467.47;;;22.80;42.85
7333;BME280;3707;43.618;25.342;2023-05-07T10:37:17;100475.19;;;22.57;42.33
7333;BME280;3707;43.618;25.342;2023-05-07T10:39:44;100457.09;;;22.74;42.77
7333;BME280;3707;43.618;25.342;2023-05-07T10:42:13;100466.88;;;22.70;41.76
7333;BME280;3707;43.618;25.342;2023-05-07T10:44:41;100465.81;;;22.76;42.27
7333;BME280;3707;43.618;25.342;2023-05-07T10:47:09;100471.13;;;22.76;41.83
7333;BME280;3707;43.618;25.342;2023-05-07T10:49:37;100453.75;;;22.66;41.90
7333;BME280;3707;43.618;25.342;2023-05-07T10:52:17;100468.44;;;22.78;41.98
7333;BME280;3707;43.618;25.342;2023-05-07T10:54:45;100458.09;;;22.99;40.90
7333;BME280;3707;43.618;25.342;2023-05-07T10:57:33;100463.59;;;22.93;41.14
7333;BME280;3707;43.618;25.342;2023-05-07T11:00:04;100467.47;;;23.11;41.41
7333;BME280;3707;43.618;25.342;2023-05-07T11:03:06;100460.19;;;22.88;40.71
7333;BME280;3707;43.618;25.342;2023-05-07T11:05:33;100423.81;;;22.65;41.62
7333;BME280;3707;43.618;25.342;2023-05-07T11:08:01;100459.00;;;22.98;41.34
7333;BME280;3707;43.618;25.342;2023-05-07T11:10:49;100457.13;;;23.31;40.73
7333;BME280;3707;43.618;25.342;2023-05-07T11:13:17;100455.38;;;23.30;40.49
7333;BME280;3707;43.618;25.342;2023-05-07T11:15:47;100458.81;;;23.34;40.46
7333;BME280;3707;43.618;25.342;2023-05-07T11:18:16;100442.50;;;22.90;41.07
7333;BME280;3707;43.618;25.342;2023-05-07T11:20:56;100437.78;;;22.72;41.00
7333;BME280;3707;43.618;25.342;2023-05-07T11:23:55;100446.28;;;23.11;41.00
7333;BME280;3707;43.618;25.342;2023-05-07T11:26:22;100447.75;;;23.21;41.62
7333;BME280;3707;43.618;25.342;2023-05-07T11:28:51;100445.53;;;23.35;41.40
7333;BME280;3707;43.618;25.342;2023-05-07T11:31:22;100448.59;;;23.77;40.48
7333;BME280;3707;43.618;25.342;2023-05-07T11:33:50;100443.03;;;23.58;39.93
7333;BME280;3707;43.618;25.342;2023-05-07T11:36:18;100435.44;;;23.48;39.05
7333;BME280;3707;43.618;25.342;2023-05-07T11:38:46;100440.19;;;23.37;39.09
7333;BME280;3707;43.618;25.342;2023-05-07T11:41:12;100431.41;;;23.64;39.49
7333;BME280;3707;43.618;25.342;2023-05-07T11:43:54;100429.41;;;23.70;40.18
7333;BME280;3707;43.618;25.342;2023-05-07T11:46:26;100439.19;;;23.68;37.79
7333;BME280;3707;43.618;25.342;2023-05-07T11:48:54;100428.31;;;23.76;39.47
7333;BME280;3707;43.618;25.342;2023-05-07T11:51:22;100427.88;;;24.16;38.52
7333;BME280;3707;43.618;25.342;2023-05-07T11:53:49;100421.94;;;24.08;37.97
7333;BME280;3707;43.618;25.342;2023-05-07T11:56:17;100421.13;;;24.32;38.31
7333;BME280;3707;43.618;25.342;2023-05-07T11:58:45;100415.91;;;24.54;37.80
7333;BME280;3707;43.618;25.342;2023-05-07T12:01:13;100412.06;;;24.38;38.10
7333;BME280;3707;43.618;25.342;2023-05-07T12:03:43;100415.19;;;24.26;37.92
7333;BME280;3707;43.618;25.342;2023-05-07T12:06:11;100410.06;;;24.19;37.72
7333;BME280;3707;43.618;25.342;2023-05-07T12:08:39;100375.06;;;23.59;38.33
7333;BME280;3707;43.618;25.342;2023-05-07T12:11:10;100406.13;;;23.80;38.75
7333;BME280;3707;43.618;25.342;2023-05-07T12:13:39;100398.59;;;23.42;39.76
7333;BME280;3707;43.618;25.342;2023-05-07T12:16:06;100398.00;;;23.32;40.24
7333;BME280;3707;43.618;25.342;2023-05-07T12:18:35;100385.78;;;23.00;40.50
7333;BME280;3707;43.618;25.342;2023-05-07T12:21:04;100394.63;;;23.55;40.35
7333;BME280;3707;43.618;25.342;2023-05-07T12:23:33;100387.69;;;23.77;39.95
7333;BME280;3707;43.618;25.342;2023-05-07T12:26:00;100376.19;;;23.78;39.63
7333;BME280;3707;43.618;25.342;2023-05-07T12:28:27;100390.84;;;23.62;39.86
7333;BME280;3707;43.618;25.342;2023-05-07T12:30:54;100392.13;;;23.77;39.15
7333;BME280;3707;43.618;25.342;2023-05-07T12:33:24;100386.84;;;24.01;39.55
7333;BME280;3707;43.618;25.342;2023-05-07T12:35:54;100310.50;;;23.63;39.76
7333;BME280;3707;43.618;25.342;2023-05-07T12:38:23;100389.03;;;23.64;39.73
7333;BME280;3707;43.618;25.342;2023-05-07T12:40:53;100379.28;;;23.91;39.77
7333;BME280;3707;43.618;25.342;2023-05-07T12:43:21;100380.63;;;24.02;39.36
7333;BME280;3707;43.618;25.342;2023-05-07T12:45:51;100382.53;;;23.99;39.64
7333;BME280;3707;43.618;25.342;2023-05-07T12:48:20;100379.91;;;23.97;40.31
7333;BME280;3707;43.618;25.342;2023-05-07T12:50:49;100358.81;;;24.21;40.68
7333;BME280;3707;43.618;25.342;2023-05-07T12:53:16;100354.41;;;24.19;40.27
7333;BME280;3707;43.618;25.342;2023-05-07T12:55:45;100365.81;;;24.46;41.00
7333;BME280;3707;43.618;25.342;2023-05-07T12:58:16;100377.63;;;24.61;39.79
7333;BME280;3707;43.618;25.342;2023-05-07T13:00:44;100364.81;;;24.49;39.83
7333;BME280;3707;43.618;25.342;2023-05-07T13:03:11;100361.81;;;24.10;40.40